sensor_id;sensor_type;location;lat;lon;timestamp;temperature;humidity
2523;DHT22;1272;53.332;9.860;2023-07-28T00:02:02;16.80;99.90
2523;DHT22;1272;53.332;9.860;2023-07-28T00:04:28;16.80;99.90
2523;DHT22;1272;53.332;9.860;2023-07-28T00:06:53;16.80;99.90
2523;DHT22;1272;53.332;9.860;2023-07-28T00:09:19;16.80;99.90
2523;DHT22;1272;53.332;9.860;2023-07-28T00:11:45;16.80;99.90
2523;DHT22;1272;53.332;9.860;2023-07-28T00:14:10;16.80;99.90
2523;DHT22;1272;53.332;9.860;2023-07-28T00:16:36;16.80;99.90
2523;DHT22;1272;53.332;9.860;2023-07-28T00:19:03;16.80;99.90
2523;DHT22;1272;53.332;9.860;2023-07-28T00:21:28;16.80;99.90
2523;DHT22;1272;53.332;9.860;2023-07-28T00:23:54;16.80;99.90
2523;DHT22;1272;53.332;9.860;2023-07-28T00:26:20;16.80;99.90
2523;DHT22;1272;53.332;9.860;2023-07-28T00:28:45;16.80;99.90
2523;DHT22;1272;53.332;9.860;2023-07-28T00:31:11;16.80;99.90
2523;DHT22;1272;53.332;9.860;2023-07-28T00:33:37;16.80;99.90
2523;DHT22;1272;53.332;9.860;2023-07-28T00:36:03;16.80;99.90
2523;DHT22;1272;53.332;9.860;2023-07-28T00:38:29;16.80;99.90
2523;DHT22;1272;53.332;9.860;2023-07-28T00:40:55;16.80;99.90
2523;DHT22;1272;53.332;9.860;2023-07-28T00:43:20;16.90;99.90
2523;DHT22;1272;53.332;9.860;2023-07-28T00:45:46;17.00;99.90
2523;DHT22;1272;53.332;9.860;2023-07-28T00:48:13;17.00;99.90
2523;DHT22;1272;53.332;9.860;2023-07-28T00:50:41;17.00;99.90
2523;DHT22;1272;53.332;9.860;2023-07-28T00:53:08;17.00;99.90
2523;DHT22;1272;53.332;9.860;2023-07-28T00:55:34;17.00;99.90
2523;DHT22;1272;53.332;9.860;2023-07-28T00:57:59;17.00;99.90
2523;DHT22;1272;53.332;9.860;2023-07-28T01:00:25;17.10;99.90
2523;DHT22;1272;53.332;9.860;2023-07-28T01:02:51;17.00;99.90
2523;DHT22;1272;53.332;9.860;2023-07-28T01:05:17;17.10;99.90
2523;DHT22;1272;53.332;9.860;2023-07-28T01:08:11;17.00;99.90
2523;DHT22;1272;53.332;9.860;2023-07-28T01:10:42;17.10;99.90
2523;DHT22;1272;53.332;9.860;2023-07-28T01:13:08;17.10;99.90
2523;DHT22;1272;53.332;9.860;2023-07-28T01:15:34;17.10;99.90
2523;DHT22;1272;53.332;9.860;2023-07-28T01:18:00;17.20;99.90
2523;DHT22;1272;53.332;9.860;2023-07-28T01:20:29;17.20;99.90
2523;DHT22;1272;53.332;9.860;2023-07-28T01:23:09;17.20;99.90
2523;DHT22;1272;53.332;9.860;2023-07-28T01:25:56;17.10;99.90
2523;DHT22;1272;53.332;9.860;2023-07-28T01:28:24;17.10;99.90
2523;DHT22;1272;53.332;9.860;2023-07-28T01:30:50;17.10;99.90
2523;DHT22;1272;53.332;9.860;2023-07-28T01:33:16;17.20;99.90
2523;DHT22;1272;53.332;9.860;2023-07-28T01:35:42;17.20;99.90
2523;DHT22;1272;53.332;9.860;2023-07-28T01:38:07;17.20;99.90
2523;DHT22;1272;53.332;9.860;2023-07-28T01:40:33;17.20;99.90
2523;DHT22;1272;53.332;9.860;2023-07-28T01:42:59;17.20;99.90
2523;DHT22;1272;53.332;9.860;2023-07-28T01:45:25;17.10;99.90
2523;DHT22;1272;53.332;9.860;2023-07-28T01:47:50;17.20;99.90
2523;DHT22;1272;53.332;9.860;2023-07-28T01:50:16;17.20;99.90
2523;DHT22;1272;53.332;9.860;2023-07-28T01:52:42;17.10;99.90
2523;DHT22;1272;53.332;9.860;2023-07-28T01:55:07;17.10;99.90
2523;DHT22;1272;53.332;9.860;2023-07-28T01:57:34;17.20;99.90
2523;DHT22;1272;53.332;9.860;2023-07-28T02:00:00;17.20;99.90
2523;DHT22;1272;53.332;9.860;2023-07-28T02:02:25;17.20;99.90
2523;DHT22;1272;53.332;9.860;2023-07-28T02:04:51;17.10;99.90
2523;DHT22;1272;53.332;9.860;2023-07-28T02:07:17;17.10;99.90
2523;DHT22;1272;53.332;9.860;2023-07-28T02:09:42;17.20;99.90
2523;DHT22;1272;53.332;9.860;2023-07-28T02:12:08;17.10;99.90
2523;DHT22;1272;53.332;9.860;2023-07-28T02:14:34;17.20;99.90
2523;DHT22;1272;53.332;9.860;2023-07-28T02:17:00;17.30;99.90
2523;DHT22;1272;53.332;9.860;2023-07-28T02:19:26;17.30;99.90
2523;DHT22;1272;53.332;9.860;2023-07-28T02:21:51;17.30;99.90
2523;DHT22;1272;53.332;9.860;2023-07-28T02:24:17;17.30;99.90
2523;DHT22;1272;53.332;9.860;2023-07-28T02:26:43;17.30;99.90
2523;DHT22;1272;53.332;9.860;2023-07-28T02:29:08;17.30;99.90
2523;DHT22;1272;53.332;9.860;2023-07-28T02:31:34;17.30;99.90
2523;DHT22;1272;53.332;9.860;2023-07-28T02:34:00;17.30;99.90
2523;DHT22;1272;53.332;9.860;2023-07-28T02:36:25;17.30;99.90
2523;DHT22;1272;53.332;9.860;2023-07-28T02:38:51;17.30;99.90
2523;DHT22;1272;53.332;9.860;2023-07-28T02:41:17;17.30;99.90
2523;DHT22;1272;53.332;9.860;2023-07-28T02:43:42;17.40;99.90
2523;DHT22;1272;53.332;9.860;2023-07-28T02:46:08;17.30;99.90
2523;DHT22;1272;53.332;9.860;2023-07-28T02:48:34;17.30;99.90
2523;DHT22;1272;53.332;9.860;2023-07-28T02:50:59;17.30;99.90
2523;DHT22;1272;53.332;9.860;2023-07-28T02:53:25;17.30;99.90
2523;DHT22;1272;53.332;9.860;2023-07-28T02:55:51;17.40;99.90
2523;DHT22;1272;53.332;9.860;2023-07-28T02:58:16;17.40;99.90
2523;DHT22;1272;53.332;9.860;2023-07-28T03:00:43;17.40;99.90
2523;DHT22;1272;53.332;9.860;2023-07-28T03:03:10;17.40;99.90
2523;DHT22;1272;53.332;9.860;2023-07-28T03:05:37;17.40;99.90
2523;DHT22;1272;53.332;9.860;2023-07-28T03:08:03;17.50;99.90
2523;DHT22;1272;53.332;9.860;2023-07-28T03:10:29;17.40;99.90
2523;DHT22;1272;53.332;9.860;2023-07-28T03:12:55;17.40;99.90
2523;DHT22;1272;53.332;9.860;2023-07-28T03:15:22;17.40;99.90
2523;DHT22;1272;53.332;9.860;2023-07-28T03:17:49;17.40;99.90
2523;DHT22;1272;53.332;9.860;2023-07-28T03:20:15;17.40;99.90
2523;DHT22;1272;53.332;9.860;2023-07-28T03:22:40;17.40;99.90
2523;DHT22;1272;53.332;9.860;2023-07-28T03:25:06;17.40;99.90
2523;DHT22;1272;53.332;9.860;2023-07-28T03:27:32;17.30;99.90
2523;DHT22;1272;53.332;9.860;2023-07-28T03:29:58;17.30;99.90
2523;DHT22;1272;53.332;9.860;2023-07-28T03:32:23;17.40;99.90
2523;DHT22;1272;53.332;9.860;2023-07-28T03:34:49;17.40;99.90
2523;DHT22;1272;53.332;9.860;2023-07-28T03:37:15;17.40;99.90
2523;DHT22;1272;53.332;9.860;2023-07-28T03:39:40;17.30;99.90
2523;DHT22;1272;53.332;9.860;2023-07-28T03:42:07;17.30;99.90
2523;DHT22;1272;53.332;9.860;2023-07-28T03:44:32;17.40;99.90
2523;DHT22;1272;53.332;9.860;2023-07-28T03:46:59;17.40;99.90
2523;DHT22;1272;53.332;9.860;2023-07-28T03:49:25;17.40;99.90
2523;DHT22;1272;53.332;9.860;2023-07-28T03:51:50;17.40;99.90
2523;DHT22;1272;53.332;9.860;2023-07-28T03:54:16;17.40;99.90
2523;DHT22;1272;53.332;9.860;2023-07-28T03:56:42;17.30;99.90
2523;DHT22;1272;53.332;9.860;2023-07-28T03:59:07;17.30;99.90
2523;DHT22;1272;53.332;9.860;2023-07-28T04:01:33;17.30;99.90
2523;DHT22;1272;53.332;9.860;2023-07-28T04:03:58;17.30;99.90
2523;DHT22;1272;53.332;9.860;2023-07-28T04:06:47;17.30;99.90
2523;DHT22;1272;53.332;9.860;2023-07-28T04:09:16;17.30;99.90
2523;DHT22;1272;53.332;9.860;2023-07-28T04:11:42;17.30;99.90
2523;DHT22;1272;53.332;9.860;2023-07-28T04:14:08;17.40;99.90
2523;DHT22;1272;53.332;9.860;2023-07-28T04:16:33;17.30;99.90
2523;DHT22;1272;53.332;9.860;2023-07-28T04:18:59;17.30;99.90
2523;DHT22;1272;53.332;9.860;2023-07-28T04:21:25;17.30;99.90
2523;DHT22;1272;53.332;9.860;2023-07-28T04:23:51;17.40;99.90
2523;DHT22;1272;53.332;9.860;2023-07-28T04:26:18;17.30;99.90
2523;DHT22;1272;53.332;9.860;2023-07-28T04:28:44;17.30;99.90
2523;DHT22;1272;53.332;9.860;2023-07-28T04:31:10;17.30;99.90
2523;DHT22;1272;53.332;9.860;2023-07-28T04:33:36;17.30;99.90
2523;DHT22;1272;53.332;9.860;2023-07-28T04:36:05;17.30;99.90
2523;DHT22;1272;53.332;9.860;2023-07-28T04:38:30;17.30;99.90
2523;DHT22;1272;53.332;9.860;2023-07-28T04:40:56;17.30;99.90
2523;DHT22;1272;53.332;9.860;2023-07-28T04:43:22;17.30;99.90
2523;DHT22;1272;53.332;9.860;2023-07-28T04:45:47;17.30;99.90
2523;DHT22;1272;53.332;9.860;2023-07-28T04:48:13;17.30;99.90
2523;DHT22;1272;53.332;9.860;2023-07-28T04:50:39;17.40;99.90
2523;DHT22;1272;53.332;9.860;2023-07-28T04:53:05;17.40;99.90
2523;DHT22;1272;53.332;9.860;2023-07-28T04:55:30;17.40;99.90
2523;DHT22;1272;53.332;9.860;2023-07-28T04:57:56;17.50;99.90
2523;DHT22;1272;53.332;9.860;2023-07-28T05:00:22;17.50;99.90
2523;DHT22;1272;53.332;9.860;2023-07-28T05:02:48;17.50;99.90
2523;DHT22;1272;53.332;9.860;2023-07-28T05:05:14;17.50;99.90
2523;DHT22;1272;53.332;9.860;2023-07-28T05:07:40;17.50;99.90
2523;DHT22;1272;53.332;9.860;2023-07-28T05:10:07;17.60;99.90
2523;DHT22;1272;53.332;9.860;2023-07-28T05:12:33;17.60;99.90
2523;DHT22;1272;53.332;9.860;2023-07-28T05:14:59;17.60;99.90
2523;DHT22;1272;53.332;9.860;2023-07-28T05:17:25;17.70;99.90
2523;DHT22;1272;53.332;9.860;2023-07-28T05:19:51;17.70;99.90
2523;DHT22;1272;53.332;9.860;2023-07-28T05:22:17;17.70;99.90
2523;DHT22;1272;53.332;9.860;2023-07-28T05:24:43;17.70;99.90
2523;DHT22;1272;53.332;9.860;2023-07-28T05:27:10;17.70;99.90
2523;DHT22;1272;53.332;9.860;2023-07-28T05:29:35;17.70;99.90
2523;DHT22;1272;53.332;9.860;2023-07-28T05:32:01;17.70;99.90
2523;DHT22;1272;53.332;9.860;2023-07-28T05:34:27;17.70;99.90
2523;DHT22;1272;53.332;9.860;2023-07-28T05:36:52;17.80;99.90
2523;DHT22;1272;53.332;9.860;2023-07-28T05:39:18;17.80;99.90
2523;DHT22;1272;53.332;9.860;2023-07-28T05:41:44;17.80;99.90
2523;DHT22;1272;53.332;9.860;2023-07-28T05:44:09;17.80;99.90
2523;DHT22;1272;53.332;9.860;2023-07-28T05:46:35;17.90;99.90
2523;DHT22;1272;53.332;9.860;2023-07-28T05:49:01;17.90;99.90
2523;DHT22;1272;53.332;9.860;2023-07-28T05:51:26;17.90;99.90
2523;DHT22;1272;53.332;9.860;2023-07-28T05:53:52;18.00;99.90
2523;DHT22;1272;53.332;9.860;2023-07-28T05:56:18;18.00;99.90
2523;DHT22;1272;53.332;9.860;2023-07-28T05:58:47;18.00;99.90
2523;DHT22;1272;53.332;9.860;2023-07-28T06:01:13;18.00;99.90
2523;DHT22;1272;53.332;9.860;2023-07-28T06:03:39;18.00;99.90
2523;DHT22;1272;53.332;9.860;2023-07-28T06:06:05;18.00;99.90
2523;DHT22;1272;53.332;9.860;2023-07-28T06:08:30;17.90;99.90
2523;DHT22;1272;53.332;9.860;2023-07-28T06:10:56;18.00;99.90
2523;DHT22;1272;53.332;9.860;2023-07-28T06:13:22;18.00;99.90
2523;DHT22;1272;53.332;9.860;2023-07-28T06:15:47;18.00;99.90
2523;DHT22;1272;53.332;9.860;2023-07-28T06:18:13;18.10;99.90
2523;DHT22;1272;53.332;9.860;2023-07-28T06:20:43;18.10;99.90
2523;DHT22;1272;53.332;9.860;2023-07-28T06:23:09;18.20;99.90
2523;DHT22;1272;53.332;9.860;2023-07-28T06:25:35;18.20;99.90
2523;DHT22;1272;53.332;9.860;2023-07-28T06:28:06;18.20;99.90
2523;DHT22;1272;53.332;9.860;2023-07-28T06:30:56;18.20;99.90
2523;DHT22;1272;53.332;9.860;2023-07-28T06:33:22;18.30;99.90
2523;DHT22;1272;53.332;9.860;2023-07-28T06:35:47;18.30;99.90
2523;DHT22;1272;53.332;9.860;2023-07-28T06:38:13;18.30;99.90
2523;DHT22;1272;53.332;9.860;2023-07-28T06:40:39;18.40;99.90
2523;DHT22;1272;53.332;9.860;2023-07-28T06:43:04;18.40;99.90
2523;DHT22;1272;53.332;9.860;2023-07-28T06:45:40;18.50;99.90
2523;DHT22;1272;53.332;9.860;2023-07-28T06:48:06;18.50;99.90
2523;DHT22;1272;53.332;9.860;2023-07-28T06:50:31;18.50;99.90
2523;DHT22;1272;53.332;9.860;2023-07-28T06:52:57;18.50;99.90
2523;DHT22;1272;53.332;9.860;2023-07-28T06:55:23;18.50;99.90
2523;DHT22;1272;53.332;9.860;2023-07-28T06:57:49;18.50;99.90
2523;DHT22;1272;53.332;9.860;2023-07-28T07:00:15;18.50;99.90
2523;DHT22;1272;53.332;9.860;2023-07-28T07:02:41;18.50;99.90
2523;DHT22;1272;53.332;9.860;2023-07-28T07:05:07;18.50;99.90
2523;DHT22;1272;53.332;9.860;2023-07-28T07:07:33;18.60;99.90
2523;DHT22;1272;53.332;9.860;2023-07-28T07:09:59;18.70;99.90
2523;DHT22;1272;53.332;9.860;2023-07-28T07:12:25;18.70;99.90
2523;DHT22;1272;53.332;9.860;2023-07-28T07:14:51;18.70;99.90
2523;DHT22;1272;53.332;9.860;2023-07-28T07:17:17;18.70;99.90
2523;DHT22;1272;53.332;9.860;2023-07-28T07:19:43;18.70;99.90
2523;DHT22;1272;53.332;9.860;2023-07-28T07:22:09;18.70;99.90
2523;DHT22;1272;53.332;9.860;2023-07-28T07:24:34;18.70;99.90
2523;DHT22;1272;53.332;9.860;2023-07-28T07:27:00;18.80;99.90
2523;DHT22;1272;53.332;9.860;2023-07-28T07:29:26;18.80;99.90
2523;DHT22;1272;53.332;9.860;2023-07-28T07:31:52;18.80;99.90
2523;DHT22;1272;53.332;9.860;2023-07-28T07:34:22;18.80;99.90
2523;DHT22;1272;53.332;9.860;2023-07-28T07:36:49;18.90;99.90
2523;DHT22;1272;53.332;9.860;2023-07-28T07:39:14;18.90;99.90
2523;DHT22;1272;53.332;9.860;2023-07-28T07:41:40;19.00;99.90
2523;DHT22;1272;53.332;9.860;2023-07-28T07:44:06;19.10;99.90
2523;DHT22;1272;53.332;9.860;2023-07-28T07:46:32;19.10;99.90
2523;DHT22;1272;53.332;9.860;2023-07-28T07:48:58;19.20;99.90
2523;DHT22;1272;53.332;9.860;2023-07-28T07:51:23;19.20;99.90
2523;DHT22;1272;53.332;9.860;2023-07-28T07:53:49;19.30;99.90
2523;DHT22;1272;53.332;9.860;2023-07-28T07:56:15;19.30;99.90
2523;DHT22;1272;53.332;9.860;2023-07-28T07:58:41;19.30;99.90
2523;DHT22;1272;53.332;9.860;2023-07-28T08:01:06;19.40;99.90
2523;DHT22;1272;53.332;9.860;2023-07-28T08:03:32;19.30;99.90
2523;DHT22;1272;53.332;9.860;2023-07-28T08:05:58;19.40;99.90
2523;DHT22;1272;53.332;9.860;2023-07-28T08:08:24;19.40;99.90
2523;DHT22;1272;53.332;9.860;2023-07-28T08:10:50;19.30;99.90
2523;DHT22;1272;53.332;9.860;2023-07-28T08:13:16;19.30;99.90
2523;DHT22;1272;53.332;9.860;2023-07-28T08:15:45;19.20;99.90
2523;DHT22;1272;53.332;9.860;2023-07-28T08:18:12;19.20;99.90
2523;DHT22;1272;53.332;9.860;2023-07-28T08:20:38;19.20;99.90
2523;DHT22;1272;53.332;9.860;2023-07-28T08:23:04;19.10;99.90
2523;DHT22;1272;53.332;9.860;2023-07-28T08:25:30;19.10;99.90
2523;DHT22;1272;53.332;9.860;2023-07-28T08:27:55;19.00;99.90
2523;DHT22;1272;53.332;9.860;2023-07-28T08:30:21;19.00;99.90
2523;DHT22;1272;53.332;9.860;2023-07-28T08:32:47;19.10;99.90
2523;DHT22;1272;53.332;9.860;2023-07-28T08:35:12;19.10;99.90
2523;DHT22;1272;53.332;9.860;2023-07-28T08:37:38;19.10;99.90
2523;DHT22;1272;53.332;9.860;2023-07-28T08:40:04;19.10;99.90
2523;DHT22;1272;53.332;9.860;2023-07-28T08:42:32;19.10;99.90
2523;DHT22;1272;53.332;9.860;2023-07-28T08:45:02;19.20;99.90
2523;DHT22;1272;53.332;9.860;2023-07-28T08:47:27;19.10;99.90
2523;DHT22;1272;53.332;9.860;2023-07-28T08:49:53;19.10;99.90
2523;DHT22;1272;53.332;9.860;2023-07-28T08:52:18;19.10;99.90
2523;DHT22;1272;53.332;9.860;2023-07-28T08:54:44;19.10;99.90
2523;DHT22;1272;53.332;9.860;2023-07-28T08:57:10;19.10;99.90
2523;DHT22;1272;53.332;9.860;2023-07-28T08:59:36;19.10;99.90
2523;DHT22;1272;53.332;9.860;2023-07-28T09:02:09;19.20;99.90
2523;DHT22;1272;53.332;9.860;2023-07-28T09:04:35;19.20;99.90
2523;DHT22;1272;53.332;9.860;2023-07-28T09:07:04;19.20;99.90
2523;DHT22;1272;53.332;9.860;2023-07-28T09:09:32;19.30;99.90
2523;DHT22;1272;53.332;9.860;2023-07-28T09:11:59;19.40;99.90
2523;DHT22;1272;53.332;9.860;2023-07-28T09:14:25;19.50;99.90
2523;DHT22;1272;53.332;9.860;2023-07-28T09:16:51;19.50;99.90
2523;DHT22;1272;53.332;9.860;2023-07-28T09:19:17;19.60;99.90
2523;DHT22;1272;53.332;9.860;2023-07-28T09:21:44;19.60;99.90
2523;DHT22;1272;53.332;9.860;2023-07-28T09:24:13;19.60;99.90
2523;DHT22;1272;53.332;9.860;2023-07-28T09:26:46;19.80;99.90
2523;DHT22;1272;53.332;9.860;2023-07-28T09:29:14;19.80;99.90
2523;DHT22;1272;53.332;9.860;2023-07-28T09:31:41;19.90;99.90
2523;DHT22;1272;53.332;9.860;2023-07-28T09:34:10;20.00;99.90
2523;DHT22;1272;53.332;9.860;2023-07-28T09:36:37;20.20;99.90
2523;DHT22;1272;53.332;9.860;2023-07-28T09:39:05;20.30;99.90
2523;DHT22;1272;53.332;9.860;2023-07-28T09:41:38;20.50;99.90
2523;DHT22;1272;53.332;9.860;2023-07-28T09:44:05;20.70;99.90
2523;DHT22;1272;53.332;9.860;2023-07-28T09:46:33;20.70;99.90
2523;DHT22;1272;53.332;9.860;2023-07-28T09:49:04;20.80;99.90
2523;DHT22;1272;53.332;9.860;2023-07-28T09:51:31;20.90;99.90
2523;DHT22;1272;53.332;9.860;2023-07-28T09:54:25;21.00;99.90
2523;DHT22;1272;53.332;9.860;2023-07-28T09:56:58;20.90;99.90
2523;DHT22;1272;53.332;9.860;2023-07-28T09:59:29;20.90;99.90
2523;DHT22;1272;53.332;9.860;2023-07-28T10:01:58;20.80;99.90
2523;DHT22;1272;53.332;9.860;2023-07-28T10:04:25;20.70;99.90
2523;DHT22;1272;53.332;9.860;2023-07-28T10:06:52;20.70;99.90
2523;DHT22;1272;53.332;9.860;2023-07-28T10:09:27;20.70;99.90
2523;DHT22;1272;53.332;9.860;2023-07-28T10:11:53;20.60;99.90
2523;DHT22;1272;53.332;9.860;2023-07-28T10:14:26;20.50;99.90
2523;DHT22;1272;53.332;9.860;2023-07-28T10:16:57;20.50;99.90
2523;DHT22;1272;53.332;9.860;2023-07-28T10:19:25;20.40;99.90
2523;DHT22;1272;53.332;9.860;2023-07-28T10:21:59;20.40;99.90
2523;DHT22;1272;53.332;9.860;2023-07-28T10:24:54;20.40;99.90
2523;DHT22;1272;53.332;9.860;2023-07-28T10:27:37;20.40;99.90
2523;DHT22;1272;53.332;9.860;2023-07-28T10:30:14;20.40;99.90
2523;DHT22;1272;53.332;9.860;2023-07-28T10:32:45;20.50;99.90
2523;DHT22;1272;53.332;9.860;2023-07-28T10:37:43;20.50;99.90
2523;DHT22;1272;53.332;9.860;2023-07-28T10:40:29;20.60;99.90
2523;DHT22;1272;53.332;9.860;2023-07-28T10:43:02;20.60;99.90
2523;DHT22;1272;53.332;9.860;2023-07-28T10:45:30;20.70;99.90
2523;DHT22;1272;53.332;9.860;2023-07-28T10:47:57;20.70;99.90
2523;DHT22;1272;53.332;9.860;2023-07-28T10:50:27;20.70;99.90
2523;DHT22;1272;53.332;9.860;2023-07-28T10:52:53;20.70;99.90
2523;DHT22;1272;53.332;9.860;2023-07-28T10:55:21;20.70;99.90
2523;DHT22;1272;53.332;9.860;2023-07-28T10:57:49;20.70;99.90
2523;DHT22;1272;53.332;9.860;2023-07-28T11:00:17;20.70;99.90
2523;DHT22;1272;53.332;9.860;2023-07-28T11:02:50;20.70;99.90
2523;DHT22;1272;53.332;9.860;2023-07-28T11:05:24;20.70;99.90
2523;DHT22;1272;53.332;9.860;2023-07-28T11:07:53;20.70;99.90
2523;DHT22;1272;53.332;9.860;2023-07-28T11:10:20;20.60;99.90
2523;DHT22;1272;53.332;9.860;2023-07-28T11:12:47;20.50;99.90
2523;DHT22;1272;53.332;9.860;2023-07-28T11:15:15;20.50;99.90
2523;DHT22;1272;53.332;9.860;2023-07-28T11:17:47;20.50;99.90
2523;DHT22;1272;53.332;9.860;2023-07-28T11:20:20;20.60;99.90
2523;DHT22;1272;53.332;9.860;2023-07-28T11:22:56;20.60;99.90
2523;DHT22;1272;53.332;9.860;2023-07-28T11:25:27;20.60;99.90
2523;DHT22;1272;53.332;9.860;2023-07-28T11:27:53;20.60;99.90
2523;DHT22;1272;53.332;9.860;2023-07-28T11:30:21;20.60;99.90
2523;DHT22;1272;53.332;9.860;2023-07-28T11:32:52;20.60;99.90
2523;DHT22;1272;53.332;9.860;2023-07-28T11:35:20;20.60;99.90
2523;DHT22;1272;53.332;9.860;2023-07-28T11:37:48;20.70;99.90
2523;DHT22;1272;53.332;9.860;2023-07-28T11:40:16;20.80;99.90
2523;DHT22;1272;53.332;9.860;2023-07-28T11:42:47;20.90;99.90
2523;DHT22;1272;53.332;9.860;2023-07-28T11:45:14;21.00;99.90
2523;DHT22;1272;53.332;9.860;2023-07-28T11:47:52;21.20;99.90
2523;DHT22;1272;53.332;9.860;2023-07-28T11:50:29;21.40;99.90
2523;DHT22;1272;53.332;9.860;2023-07-28T11:52:58;21.50;99.90
2523;DHT22;1272;53.332;9.860;2023-07-28T11:55:24;21.60;99.90
2523;DHT22;1272;53.332;9.860;2023-07-28T11:57:51;21.50;99.90
2523;DHT22;1272;53.332;9.860;2023-07-28T12:00:17;21.50;99.90
2523;DHT22;1272;53.332;9.860;2023-07-28T12:02:44;21.40;99.90
2523;DHT22;1272;53.332;9.860;2023-07-28T12:05:16;21.30;99.90
2523;DHT22;1272;53.332;9.860;2023-07-28T12:07:52;21.20;99.90
2523;DHT22;1272;53.332;9.860;2023-07-28T12:10:18;21.10;99.90
2523;DHT22;1272;53.332;9.860;2023-07-28T12:12:47;21.20;99.90
2523;DHT22;1272;53.332;9.860;2023-07-28T12:15:29;21.20;99.90
2523;DHT22;1272;53.332;9.860;2023-07-28T12:18:09;21.20;99.90
2523;DHT22;1272;53.332;9.860;2023-07-28T12:20:46;21.00;99.90
2523;DHT22;1272;53.332;9.860;2023-07-28T12:23:13;21.00;99.90
2523;DHT22;1272;53.332;9.860;2023-07-28T12:25:39;20.90;99.90
2523;DHT22;1272;53.332;9.860;2023-07-28T12:28:06;20.90;99.90
2523;DHT22;1272;53.332;9.860;2023-07-28T12:30:35;21.10;99.90
2523;DHT22;1272;53.332;9.860;2023-07-28T12:33:01;21.30;99.90
2523;DHT22;1272;53.332;9.860;2023-07-28T12:35:27;21.40;99.90
2523;DHT22;1272;53.332;9.860;2023-07-28T12:37:58;21.50;99.90
2523;DHT22;1272;53.332;9.860;2023-07-28T12:40:28;21.60;99.90
2523;DHT22;1272;53.332;9.860;2023-07-28T12:42:55;21.80;99.90
2523;DHT22;1272;53.332;9.860;2023-07-28T12:45:21;21.90;99.90
2523;DHT22;1272;53.332;9.860;2023-07-28T12:47:47;21.90;99.90
2523;DHT22;1272;53.332;9.860;2023-07-28T12:50:13;21.90;99.90
2523;DHT22;1272;53.332;9.860;2023-07-28T12:52:39;21.90;99.90
2523;DHT22;1272;53.332;9.860;2023-07-28T12:55:04;21.90;99.90
2523;DHT22;1272;53.332;9.860;2023-07-28T12:57:31;22.00;99.90
2523;DHT22;1272;53.332;9.860;2023-07-28T12:59:57;22.10;99.90
2523;DHT22;1272;53.332;9.860;2023-07-28T13:02:23;22.20;99.90
2523;DHT22;1272;53.332;9.860;2023-07-28T13:04:48;22.10;99.90
2523;DHT22;1272;53.332;9.860;2023-07-28T13:07:14;22.10;99.90
2523;DHT22;1272;53.332;9.860;2023-07-28T13:09:40;22.10;99.90
2523;DHT22;1272;53.332;9.860;2023-07-28T13:12:07;22.10;99.90
2523;DHT22;1272;53.332;9.860;2023-07-28T13:14:34;22.10;99.90
2523;DHT22;1272;53.332;9.860;2023-07-28T13:16:59;22.00;99.90
2523;DHT22;1272;53.332;9.860;2023-07-28T13:19:25;22.00;99.90
2523;DHT22;1272;53.332;9.860;2023-07-28T13:21:51;22.00;99.90
2523;DHT22;1272;53.332;9.860;2023-07-28T13:24:16;22.00;99.90
2523;DHT22;1272;53.332;9.860;2023-07-28T13:26:42;22.10;99.90
2523;DHT22;1272;53.332;9.860;2023-07-28T13:29:08;22.10;99.90
2523;DHT22;1272;53.332;9.860;2023-07-28T13:31:33;22.20;99.90
2523;DHT22;1272;53.332;9.860;2023-07-28T13:33:59;22.50;99.90
2523;DHT22;1272;53.332;9.860;2023-07-28T13:36:25;22.90;99.90
2523;DHT22;1272;53.332;9.860;2023-07-28T13:38:51;23.20;99.90
2523;DHT22;1272;53.332;9.860;2023-07-28T13:41:16;23.60;99.90
2523;DHT22;1272;53.332;9.860;2023-07-28T13:43:42;23.90;1.00
2523;DHT22;1272;53.332;9.860;2023-07-28T13:46:08;24.00;1.00
2523;DHT22;1272;53.332;9.860;2023-07-28T13:48:34;24.00;1.00
2523;DHT22;1272;53.332;9.860;2023-07-28T13:51:01;23.80;1.00
2523;DHT22;1272;53.332;9.860;2023-07-28T13:53:27;23.70;1.00
2523;DHT22;1272;53.332;9.860;2023-07-28T13:55:54;23.50;1.00
2523;DHT22;1272;53.332;9.860;2023-07-28T13:58:20;23.40;1.00
2523;DHT22;1272;53.332;9.860;2023-07-28T14:00:46;23.40;99.90
2523;DHT22;1272;53.332;9.860;2023-07-28T14:03:12;23.30;1.00
2523;DHT22;1272;53.332;9.860;2023-07-28T14:05:38;23.20;1.00
2523;DHT22;1272;53.332;9.860;2023-07-28T14:08:04;23.10;32.70
2523;DHT22;1272;53.332;9.860;2023-07-28T14:10:29;23.20;27.90
2523;DHT22;1272;53.332;9.860;2023-07-28T14:12:57;23.20;2.80
2523;DHT22;1272;53.332;9.860;2023-07-28T14:15:23;23.30;46.10
2523;DHT22;1272;53.332;9.860;2023-07-28T14:17:49;23.30;93.10
2523;DHT22;1272;53.332;9.860;2023-07-28T14:20:15;23.20;34.10
2523;DHT22;1272;53.332;9.860;2023-07-28T14:22:40;23.10;1.00
2523;DHT22;1272;53.332;9.860;2023-07-28T14:25:06;23.10;30.40
2523;DHT22;1272;53.332;9.860;2023-07-28T14:27:32;23.20;99.90
2523;DHT22;1272;53.332;9.860;2023-07-28T14:29:58;23.50;99.90
2523;DHT22;1272;53.332;9.860;2023-07-28T14:32:25;23.90;1.00
2523;DHT22;1272;53.332;9.860;2023-07-28T14:34:50;24.20;99.90
2523;DHT22;1272;53.332;9.860;2023-07-28T14:37:17;24.60;99.90
2523;DHT22;1272;53.332;9.860;2023-07-28T14:39:42;24.90;99.90
2523;DHT22;1272;53.332;9.860;2023-07-28T14:42:08;25.10;1.00
2523;DHT22;1272;53.332;9.860;2023-07-28T14:44:34;25.10;1.00
2523;DHT22;1272;53.332;9.860;2023-07-28T14:46:59;25.00;99.90
2523;DHT22;1272;53.332;9.860;2023-07-28T14:49:25;25.00;99.90
2523;DHT22;1272;53.332;9.860;2023-07-28T14:51:54;25.00;99.90
2523;DHT22;1272;53.332;9.860;2023-07-28T14:54:20;25.00;99.90
2523;DHT22;1272;53.332;9.860;2023-07-28T14:56:46;25.00;1.00
2523;DHT22;1272;53.332;9.860;2023-07-28T14:59:11;25.10;99.90
2523;DHT22;1272;53.332;9.860;2023-07-28T15:01:37;25.40;49.40
2523;DHT22;1272;53.332;9.860;2023-07-28T15:04:03;25.70;1.00
2523;DHT22;1272;53.332;9.860;2023-07-28T15:06:30;25.70;99.90
2523;DHT22;1272;53.332;9.860;2023-07-28T15:08:56;25.60;1.00
2523;DHT22;1272;53.332;9.860;2023-07-28T15:11:21;25.40;99.90
2523;DHT22;1272;53.332;9.860;2023-07-28T15:13:47;25.30;1.00
2523;DHT22;1272;53.332;9.860;2023-07-28T15:16:13;25.20;99.90
2523;DHT22;1272;53.332;9.860;2023-07-28T15:18:39;25.00;1.00
2523;DHT22;1272;53.332;9.860;2023-07-28T15:21:04;24.80;99.90
2523;DHT22;1272;53.332;9.860;2023-07-28T15:23:30;24.60;99.90
2523;DHT22;1272;53.332;9.860;2023-07-28T15:25:55;24.40;99.90
2523;DHT22;1272;53.332;9.860;2023-07-28T15:28:24;24.20;1.00
2523;DHT22;1272;53.332;9.860;2023-07-28T15:30:50;24.10;99.90
2523;DHT22;1272;53.332;9.860;2023-07-28T15:33:18;23.90;99.90
2523;DHT22;1272;53.332;9.860;2023-07-28T15:35:45;23.80;99.90
2523;DHT22;1272;53.332;9.860;2023-07-28T15:38:11;23.70;99.90
2523;DHT22;1272;53.332;9.860;2023-07-28T15:40:37;23.50;99.90
2523;DHT22;1272;53.332;9.860;2023-07-28T15:43:02;23.40;1.00
2523;DHT22;1272;53.332;9.860;2023-07-28T15:45:28;23.40;1.00
2523;DHT22;1272;53.332;9.860;2023-07-28T15:47:54;23.50;1.00
2523;DHT22;1272;53.332;9.860;2023-07-28T15:50:19;23.70;19.90
2523;DHT22;1272;53.332;9.860;2023-07-28T15:52:45;24.00;99.90
2523;DHT22;1272;53.332;9.860;2023-07-28T15:55:11;24.10;1.00
2523;DHT22;1272;53.332;9.860;2023-07-28T15:57:36;24.50;99.90
2523;DHT22;1272;53.332;9.860;2023-07-28T16:00:02;24.80;1.00
2523;DHT22;1272;53.332;9.860;2023-07-28T16:02:29;25.20;1.00
2523;DHT22;1272;53.332;9.860;2023-07-28T16:04:55;25.50;99.90